sensor_id;sensor_type;location;lat;lon;timestamp;P1;durP1;ratioP1;P2;durP2;ratioP2
29246;SDS011;16272;48.188;9.964;2023-05-17T00:01:16;8.67;;;1.33;;
29246;SDS011;16272;48.188;9.964;2023-05-17T00:03:41;6.93;;;1.60;;
29246;SDS011;16272;48.188;9.964;2023-05-17T00:06:07;8.20;;;1.67;;
29246;SDS011;16272;48.188;9.964;2023-05-17T00:08:33;6.55;;;1.40;;
29246;SDS011;16272;48.188;9.964;2023-05-17T00:10:58;7.83;;;1.50;;
29246;SDS011;16272;48.188;9.964;2023-05-17T00:13:24;7.57;;;1.20;;
29246;SDS011;16272;48.188;9.964;2023-05-17T00:15:49;6.63;;;1.40;;
29246;SDS011;16272;48.188;9.964;2023-05-17T00:18:15;7.43;;;1.50;;
29246;SDS011;16272;48.188;9.964;2023-05-17T00:20:40;10.27;;;1.70;;
29246;SDS011;16272;48.188;9.964;2023-05-17T00:23:05;7.23;;;2.03;;
29246;SDS011;16272;48.188;9.964;2023-05-17T00:25:30;9.27;;;1.60;;
29246;SDS011;16272;48.188;9.964;2023-05-17T00:27:56;5.13;;;1.50;;
29246;SDS011;16272;48.188;9.964;2023-05-17T00:30:21;6.30;;;1.57;;
29246;SDS011;16272;48.188;9.964;2023-05-17T00:32:47;6.73;;;1.67;;
29246;SDS011;16272;48.188;9.964;2023-05-17T00:35:12;8.38;;;1.27;;
29246;SDS011;16272;48.188;9.964;2023-05-17T00:37:38;5.20;;;1.20;;
29246;SDS011;16272;48.188;9.964;2023-05-17T00:40:03;6.27;;;1.20;;
29246;SDS011;16272;48.188;9.964;2023-05-17T00:42:29;7.20;;;1.42;;
29246;SDS011;16272;48.188;9.964;2023-05-17T00:44:55;6.07;;;1.23;;
29246;SDS011;16272;48.188;9.964;2023-05-17T00:47:20;7.10;;;1.45;;
29246;SDS011;16272;48.188;9.964;2023-05-17T00:49:46;8.53;;;1.70;;
29246;SDS011;16272;48.188;9.964;2023-05-17T00:52:11;7.27;;;1.20;;
29246;SDS011;16272;48.188;9.964;2023-05-17T00:54:38;6.63;;;1.37;;
29246;SDS011;16272;48.188;9.964;2023-05-17T00:57:04;5.85;;;1.52;;
29246;SDS011;16272;48.188;9.964;2023-05-17T00:59:30;5.93;;;1.40;;
29246;SDS011;16272;48.188;9.964;2023-05-17T01:01:56;6.35;;;1.10;;
29246;SDS011;16272;48.188;9.964;2023-05-17T01:04:22;6.33;;;1.30;;
29246;SDS011;16272;48.188;9.964;2023-05-17T01:06:48;5.65;;;1.00;;
29246;SDS011;16272;48.188;9.964;2023-05-17T01:09:14;6.65;;;1.10;;
29246;SDS011;16272;48.188;9.964;2023-05-17T01:11:52;6.73;;;1.40;;
29246;SDS011;16272;48.188;9.964;2023-05-17T01:17:12;6.60;;;1.17;;
29246;SDS011;16272;48.188;9.964;2023-05-17T01:25:49;6.90;;;1.67;;
29246;SDS011;16272;48.188;9.964;2023-05-17T01:28:16;5.32;;;1.25;;
29246;SDS011;16272;48.188;9.964;2023-05-17T01:30:44;7.95;;;1.60;;
29246;SDS011;16272;48.188;9.964;2023-05-17T01:33:11;5.65;;;1.30;;
29246;SDS011;16272;48.188;9.964;2023-05-17T01:35:37;5.70;;;1.40;;
29246;SDS011;16272;48.188;9.964;2023-05-17T01:38:02;8.33;;;1.30;;
29246;SDS011;16272;48.188;9.964;2023-05-17T01:40:27;6.00;;;1.30;;
29246;SDS011;16272;48.188;9.964;2023-05-17T01:43:02;7.47;;;1.30;;
29246;SDS011;16272;48.188;9.964;2023-05-17T01:45:38;6.35;;;1.50;;
29246;SDS011;16272;48.188;9.964;2023-05-17T01:48:19;5.35;;;1.40;;
29246;SDS011;16272;48.188;9.964;2023-05-17T01:50:47;6.50;;;1.30;;
29246;SDS011;16272;48.188;9.964;2023-05-17T01:53:28;5.70;;;1.40;;
29246;SDS011;16272;48.188;9.964;2023-05-17T01:55:56;6.63;;;1.20;;
29246;SDS011;16272;48.188;9.964;2023-05-17T01:58:27;6.28;;;1.27;;
29246;SDS011;16272;48.188;9.964;2023-05-17T02:00:54;8.43;;;1.13;;
29246;SDS011;16272;48.188;9.964;2023-05-17T02:03:22;5.75;;;1.33;;
29246;SDS011;16272;48.188;9.964;2023-05-17T02:05:48;6.85;;;1.42;;
29246;SDS011;16272;48.188;9.964;2023-05-17T02:08:13;5.17;;;1.10;;
29246;SDS011;16272;48.188;9.964;2023-05-17T02:10:39;7.60;;;1.60;;
29246;SDS011;16272;48.188;9.964;2023-05-17T02:13:04;5.70;;;1.30;;
29246;SDS011;16272;48.188;9.964;2023-05-17T02:15:30;6.32;;;1.08;;
29246;SDS011;16272;48.188;9.964;2023-05-17T02:17:56;7.47;;;1.17;;
29246;SDS011;16272;48.188;9.964;2023-05-17T02:20:21;4.95;;;1.02;;
29246;SDS011;16272;48.188;9.964;2023-05-17T02:22:46;6.13;;;1.13;;
29246;SDS011;16272;48.188;9.964;2023-05-17T02:25:12;6.17;;;1.20;;
29246;SDS011;16272;48.188;9.964;2023-05-17T02:27:38;6.85;;;1.13;;
29246;SDS011;16272;48.188;9.964;2023-05-17T02:30:03;6.43;;;1.10;;
29246;SDS011;16272;48.188;9.964;2023-05-17T02:32:29;5.78;;;1.25;;
29246;SDS011;16272;48.188;9.964;2023-05-17T02:34:56;6.28;;;1.30;;
29246;SDS011;16272;48.188;9.964;2023-05-17T02:37:21;6.07;;;1.00;;
29246;SDS011;16272;48.188;9.964;2023-05-17T02:39:46;6.60;;;1.33;;
29246;SDS011;16272;48.188;9.964;2023-05-17T02:42:12;4.83;;;1.20;;
29246;SDS011;16272;48.188;9.964;2023-05-17T02:44:37;5.27;;;1.20;;
29246;SDS011;16272;48.188;9.964;2023-05-17T02:47:03;5.23;;;1.20;;
29246;SDS011;16272;48.188;9.964;2023-05-17T02:49:28;5.10;;;1.40;;
29246;SDS011;16272;48.188;9.964;2023-05-17T02:51:54;5.70;;;1.03;;
29246;SDS011;16272;48.188;9.964;2023-05-17T02:54:20;7.32;;;1.42;;
29246;SDS011;16272;48.188;9.964;2023-05-17T02:56:45;5.93;;;1.27;;
29246;SDS011;16272;48.188;9.964;2023-05-17T02:59:10;5.10;;;1.10;;
29246;SDS011;16272;48.188;9.964;2023-05-17T03:01:36;4.93;;;1.40;;
29246;SDS011;16272;48.188;9.964;2023-05-17T03:04:01;6.13;;;1.10;;
29246;SDS011;16272;48.188;9.964;2023-05-17T03:06:26;5.97;;;1.30;;
29246;SDS011;16272;48.188;9.964;2023-05-17T03:08:52;7.37;;;1.33;;
29246;SDS011;16272;48.188;9.964;2023-05-17T03:11:17;5.60;;;1.10;;
29246;SDS011;16272;48.188;9.964;2023-05-17T03:13:42;7.37;;;1.03;;
29246;SDS011;16272;48.188;9.964;2023-05-17T03:16:10;6.78;;;1.30;;
29246;SDS011;16272;48.188;9.964;2023-05-17T03:18:35;6.40;;;1.30;;
29246;SDS011;16272;48.188;9.964;2023-05-17T03:21:01;5.63;;;1.02;;
29246;SDS011;16272;48.188;9.964;2023-05-17T03:23:26;6.70;;;1.03;;
29246;SDS011;16272;48.188;9.964;2023-05-17T03:25:51;5.80;;;1.30;;
29246;SDS011;16272;48.188;9.964;2023-05-17T03:28:16;6.63;;;1.17;;
29246;SDS011;16272;48.188;9.964;2023-05-17T03:30:42;5.27;;;1.30;;
29246;SDS011;16272;48.188;9.964;2023-05-17T03:33:07;5.03;;;1.23;;
29246;SDS011;16272;48.188;9.964;2023-05-17T03:35:32;5.27;;;1.33;;
29246;SDS011;16272;48.188;9.964;2023-05-17T03:37:58;7.33;;;1.40;;
29246;SDS011;16272;48.188;9.964;2023-05-17T03:40:23;5.18;;;1.20;;
29246;SDS011;16272;48.188;9.964;2023-05-17T03:42:48;5.43;;;1.17;;
29246;SDS011;16272;48.188;9.964;2023-05-17T03:45:15;7.10;;;1.40;;
29246;SDS011;16272;48.188;9.964;2023-05-17T03:47:42;6.45;;;0.93;;
29246;SDS011;16272;48.188;9.964;2023-05-17T03:50:08;7.27;;;1.20;;
29246;SDS011;16272;48.188;9.964;2023-05-17T03:52:33;9.15;;;1.33;;
29246;SDS011;16272;48.188;9.964;2023-05-17T03:55:00;6.83;;;1.30;;
29246;SDS011;16272;48.188;9.964;2023-05-17T03:57:25;6.68;;;1.13;;
29246;SDS011;16272;48.188;9.964;2023-05-17T03:59:51;5.90;;;1.20;;
29246;SDS011;16272;48.188;9.964;2023-05-17T04:02:16;4.63;;;1.10;;
29246;SDS011;16272;48.188;9.964;2023-05-17T04:04:47;5.72;;;1.10;;
29246;SDS011;16272;48.188;9.964;2023-05-17T04:07:14;5.20;;;1.23;;
29246;SDS011;16272;48.188;9.964;2023-05-17T04:09:39;6.43;;;1.50;;
29246;SDS011;16272;48.188;9.964;2023-05-17T04:12:05;4.17;;;1.00;;
29246;SDS011;16272;48.188;9.964;2023-05-17T04:14:31;5.53;;;1.00;;
29246;SDS011;16272;48.188;9.964;2023-05-17T04:16:56;7.68;;;1.10;;
29246;SDS011;16272;48.188;9.964;2023-05-17T04:19:22;5.10;;;1.30;;
29246;SDS011;16272;48.188;9.964;2023-05-17T04:21:47;7.17;;;1.00;;
29246;SDS011;16272;48.188;9.964;2023-05-17T04:24:16;8.07;;;1.10;;
29246;SDS011;16272;48.188;9.964;2023-05-17T04:26:41;6.05;;;1.02;;
29246;SDS011;16272;48.188;9.964;2023-05-17T04:29:06;6.53;;;1.20;;
29246;SDS011;16272;48.188;9.964;2023-05-17T04:31:32;5.97;;;1.20;;
29246;SDS011;16272;48.188;9.964;2023-05-17T04:33:58;4.28;;;0.98;;
29246;SDS011;16272;48.188;9.964;2023-05-17T04:36:23;5.43;;;1.17;;
29246;SDS011;16272;48.188;9.964;2023-05-17T04:38:49;5.95;;;1.10;;
29246;SDS011;16272;48.188;9.964;2023-05-17T04:41:15;6.63;;;0.97;;
29246;SDS011;16272;48.188;9.964;2023-05-17T04:43:41;6.00;;;1.30;;
29246;SDS011;16272;48.188;9.964;2023-05-17T04:46:06;4.77;;;1.10;;
29246;SDS011;16272;48.188;9.964;2023-05-17T04:48:32;4.68;;;1.00;;
29246;SDS011;16272;48.188;9.964;2023-05-17T04:51:01;5.73;;;1.00;;
29246;SDS011;16272;48.188;9.964;2023-05-17T04:53:28;7.07;;;1.60;;
29246;SDS011;16272;48.188;9.964;2023-05-17T04:55:54;6.07;;;1.10;;
29246;SDS011;16272;48.188;9.964;2023-05-17T04:58:20;6.18;;;1.20;;
29246;SDS011;16272;48.188;9.964;2023-05-17T05:00:48;6.43;;;1.17;;
29246;SDS011;16272;48.188;9.964;2023-05-17T05:03:13;4.63;;;1.00;;
29246;SDS011;16272;48.188;9.964;2023-05-17T05:05:38;6.83;;;1.00;;
29246;SDS011;16272;48.188;9.964;2023-05-17T05:08:03;6.73;;;0.90;;
29246;SDS011;16272;48.188;9.964;2023-05-17T05:10:29;6.07;;;0.90;;
29246;SDS011;16272;48.188;9.964;2023-05-17T05:12:54;5.20;;;1.33;;
29246;SDS011;16272;48.188;9.964;2023-05-17T05:15:19;5.53;;;1.10;;
29246;SDS011;16272;48.188;9.964;2023-05-17T05:17:45;4.53;;;0.80;;
29246;SDS011;16272;48.188;9.964;2023-05-17T05:20:10;7.73;;;1.10;;
29246;SDS011;16272;48.188;9.964;2023-05-17T05:22:36;5.60;;;0.90;;
29246;SDS011;16272;48.188;9.964;2023-05-17T05:25:01;5.77;;;0.90;;
29246;SDS011;16272;48.188;9.964;2023-05-17T05:27:26;4.67;;;0.80;;
29246;SDS011;16272;48.188;9.964;2023-05-17T05:29:53;8.27;;;1.00;;
29246;SDS011;16272;48.188;9.964;2023-05-17T05:32:19;7.88;;;1.30;;
29246;SDS011;16272;48.188;9.964;2023-05-17T05:34:44;6.47;;;1.10;;
29246;SDS011;16272;48.188;9.964;2023-05-17T05:37:10;7.73;;;1.30;;
29246;SDS011;16272;48.188;9.964;2023-05-17T05:39:35;6.27;;;1.10;;
29246;SDS011;16272;48.188;9.964;2023-05-17T05:42:00;6.17;;;1.23;;
29246;SDS011;16272;48.188;9.964;2023-05-17T05:44:28;7.60;;;1.33;;
29246;SDS011;16272;48.188;9.964;2023-05-17T05:46:53;4.67;;;0.87;;
29246;SDS011;16272;48.188;9.964;2023-05-17T05:49:19;7.00;;;1.20;;
29246;SDS011;16272;48.188;9.964;2023-05-17T05:51:44;8.33;;;1.17;;
29246;SDS011;16272;48.188;9.964;2023-05-17T05:54:10;7.50;;;1.10;;
29246;SDS011;16272;48.188;9.964;2023-05-17T05:56:35;6.50;;;1.43;;
29246;SDS011;16272;48.188;9.964;2023-05-17T05:59:00;6.67;;;1.27;;
29246;SDS011;16272;48.188;9.964;2023-05-17T06:01:26;4.15;;;0.82;;
29246;SDS011;16272;48.188;9.964;2023-05-17T06:03:52;5.25;;;1.30;;
29246;SDS011;16272;48.188;9.964;2023-05-17T06:06:18;5.63;;;1.10;;
29246;SDS011;16272;48.188;9.964;2023-05-17T06:08:43;9.40;;;1.20;;
29246;SDS011;16272;48.188;9.964;2023-05-17T06:11:11;7.13;;;1.20;;
29246;SDS011;16272;48.188;9.964;2023-05-17T06:13:37;5.83;;;1.00;;
29246;SDS011;16272;48.188;9.964;2023-05-17T06:16:02;6.60;;;0.83;;
29246;SDS011;16272;48.188;9.964;2023-05-17T06:18:29;5.57;;;0.90;;
29246;SDS011;16272;48.188;9.964;2023-05-17T06:20:54;5.27;;;1.10;;
29246;SDS011;16272;48.188;9.964;2023-05-17T06:23:20;6.35;;;1.20;;
29246;SDS011;16272;48.188;9.964;2023-05-17T06:25:45;6.50;;;1.23;;
29246;SDS011;16272;48.188;9.964;2023-05-17T06:28:10;8.07;;;1.30;;
29246;SDS011;16272;48.188;9.964;2023-05-17T06:30:36;4.80;;;1.17;;
29246;SDS011;16272;48.188;9.964;2023-05-17T06:33:01;5.90;;;1.20;;
29246;SDS011;16272;48.188;9.964;2023-05-17T06:35:27;6.65;;;1.13;;
29246;SDS011;16272;48.188;9.964;2023-05-17T06:37:53;6.93;;;1.13;;
29246;SDS011;16272;48.188;9.964;2023-05-17T06:40:18;6.30;;;1.27;;
29246;SDS011;16272;48.188;9.964;2023-05-17T06:42:44;6.53;;;1.50;;
29246;SDS011;16272;48.188;9.964;2023-05-17T06:45:09;7.13;;;1.27;;
29246;SDS011;16272;48.188;9.964;2023-05-17T06:47:35;7.23;;;1.10;;
29246;SDS011;16272;48.188;9.964;2023-05-17T06:50:00;6.10;;;1.30;;
29246;SDS011;16272;48.188;9.964;2023-05-17T06:52:25;6.60;;;1.20;;
29246;SDS011;16272;48.188;9.964;2023-05-17T06:54:51;7.30;;;1.65;;
29246;SDS011;16272;48.188;9.964;2023-05-17T06:57:16;6.47;;;1.43;;
29246;SDS011;16272;48.188;9.964;2023-05-17T06:59:42;5.67;;;1.20;;
29246;SDS011;16272;48.188;9.964;2023-05-17T07:02:07;9.07;;;1.60;;
29246;SDS011;16272;48.188;9.964;2023-05-17T07:04:32;6.47;;;1.97;;
29246;SDS011;16272;48.188;9.964;2023-05-17T07:06:58;6.77;;;1.47;;
29246;SDS011;16272;48.188;9.964;2023-05-17T07:09:23;6.20;;;1.17;;
29246;SDS011;16272;48.188;9.964;2023-05-17T07:11:48;6.17;;;1.17;;
29246;SDS011;16272;48.188;9.964;2023-05-17T07:14:14;6.63;;;1.37;;
29246;SDS011;16272;48.188;9.964;2023-05-17T07:16:39;5.97;;;1.43;;
29246;SDS011;16272;48.188;9.964;2023-05-17T07:19:04;7.20;;;1.30;;
29246;SDS011;16272;48.188;9.964;2023-05-17T07:21:30;7.80;;;1.53;;
29246;SDS011;16272;48.188;9.964;2023-05-17T07:23:56;6.25;;;1.80;;
29246;SDS011;16272;48.188;9.964;2023-05-17T07:26:22;8.67;;;1.43;;
29246;SDS011;16272;48.188;9.964;2023-05-17T07:28:47;6.63;;;1.70;;
29246;SDS011;16272;48.188;9.964;2023-05-17T07:31:13;6.55;;;1.40;;
29246;SDS011;16272;48.188;9.964;2023-05-17T07:33:38;7.33;;;1.57;;
29246;SDS011;16272;48.188;9.964;2023-05-17T07:36:04;8.63;;;1.80;;
29246;SDS011;16272;48.188;9.964;2023-05-17T07:38:30;6.37;;;1.53;;
29246;SDS011;16272;48.188;9.964;2023-05-17T07:40:56;7.45;;;1.60;;
29246;SDS011;16272;48.188;9.964;2023-05-17T07:43:21;6.70;;;1.30;;
29246;SDS011;16272;48.188;9.964;2023-05-17T07:45:47;6.13;;;1.23;;
29246;SDS011;16272;48.188;9.964;2023-05-17T07:48:12;8.33;;;1.40;;
29246;SDS011;16272;48.188;9.964;2023-05-17T07:50:38;8.20;;;1.60;;
29246;SDS011;16272;48.188;9.964;2023-05-17T07:53:03;8.85;;;1.27;;
29246;SDS011;16272;48.188;9.964;2023-05-17T07:55:28;6.37;;;1.10;;
29246;SDS011;16272;48.188;9.964;2023-05-17T07:57:54;7.90;;;1.50;;
29246;SDS011;16272;48.188;9.964;2023-05-17T08:00:19;6.50;;;1.70;;
29246;SDS011;16272;48.188;9.964;2023-05-17T08:02:45;6.43;;;1.23;;
29246;SDS011;16272;48.188;9.964;2023-05-17T08:05:10;7.07;;;1.70;;
29246;SDS011;16272;48.188;9.964;2023-05-17T08:07:35;5.10;;;1.13;;
29246;SDS011;16272;48.188;9.964;2023-05-17T08:10:01;6.87;;;1.40;;
29246;SDS011;16272;48.188;9.964;2023-05-17T08:12:26;6.87;;;1.40;;
29246;SDS011;16272;48.188;9.964;2023-05-17T08:14:53;7.22;;;1.60;;
29246;SDS011;16272;48.188;9.964;2023-05-17T08:17:18;4.97;;;1.38;;
29246;SDS011;16272;48.188;9.964;2023-05-17T08:19:43;8.80;;;1.50;;
29246;SDS011;16272;48.188;9.964;2023-05-17T08:22:09;5.87;;;1.27;;
29246;SDS011;16272;48.188;9.964;2023-05-17T08:24:35;7.90;;;1.63;;
29246;SDS011;16272;48.188;9.964;2023-05-17T08:27:00;9.23;;;1.50;;
29246;SDS011;16272;48.188;9.964;2023-05-17T08:29:26;7.67;;;1.77;;
29246;SDS011;16272;48.188;9.964;2023-05-17T08:31:52;8.13;;;1.93;;
29246;SDS011;16272;48.188;9.964;2023-05-17T08:34:18;9.13;;;2.22;;
29246;SDS011;16272;48.188;9.964;2023-05-17T08:36:43;6.57;;;1.60;;
29246;SDS011;16272;48.188;9.964;2023-05-17T08:39:09;8.43;;;1.80;;
29246;SDS011;16272;48.188;9.964;2023-05-17T08:41:36;7.80;;;1.70;;
29246;SDS011;16272;48.188;9.964;2023-05-17T08:44:02;7.07;;;1.70;;
29246;SDS011;16272;48.188;9.964;2023-05-17T08:46:29;7.55;;;1.38;;
29246;SDS011;16272;48.188;9.964;2023-05-17T08:48:56;8.40;;;1.92;;
29246;SDS011;16272;48.188;9.964;2023-05-17T08:51:23;7.07;;;1.60;;
29246;SDS011;16272;48.188;9.964;2023-05-17T08:53:50;6.47;;;1.30;;
29246;SDS011;16272;48.188;9.964;2023-05-17T08:56:15;6.73;;;1.73;;
29246;SDS011;16272;48.188;9.964;2023-05-17T08:58:46;6.55;;;1.95;;
29246;SDS011;16272;48.188;9.964;2023-05-17T09:01:13;5.07;;;1.40;;
29246;SDS011;16272;48.188;9.964;2023-05-17T09:03:40;7.43;;;1.58;;
29246;SDS011;16272;48.188;9.964;2023-05-17T09:06:08;6.43;;;1.58;;
29246;SDS011;16272;48.188;9.964;2023-05-17T09:08:35;6.57;;;1.63;;
29246;SDS011;16272;48.188;9.964;2023-05-17T09:11:01;6.22;;;1.52;;
29246;SDS011;16272;48.188;9.964;2023-05-17T09:13:27;6.17;;;1.60;;
29246;SDS011;16272;48.188;9.964;2023-05-17T09:15:53;8.00;;;1.73;;
29246;SDS011;16272;48.188;9.964;2023-05-17T09:18:18;7.20;;;1.60;;
29246;SDS011;16272;48.188;9.964;2023-05-17T09:20:52;5.95;;;1.52;;
29246;SDS011;16272;48.188;9.964;2023-05-17T09:23:19;7.17;;;1.80;;
29246;SDS011;16272;48.188;9.964;2023-05-17T09:25:45;6.05;;;1.30;;
29246;SDS011;16272;48.188;9.964;2023-05-17T09:28:12;5.78;;;1.40;;
29246;SDS011;16272;48.188;9.964;2023-05-17T09:30:37;4.00;;;1.20;;
29246;SDS011;16272;48.188;9.964;2023-05-17T09:33:07;6.10;;;1.35;;
29246;SDS011;16272;48.188;9.964;2023-05-17T09:35:33;7.33;;;1.70;;
29246;SDS011;16272;48.188;9.964;2023-05-17T09:40:32;5.97;;;1.58;;
29246;SDS011;16272;48.188;9.964;2023-05-17T09:42:58;5.83;;;1.37;;
29246;SDS011;16272;48.188;9.964;2023-05-17T09:45:24;5.88;;;1.50;;
29246;SDS011;16272;48.188;9.964;2023-05-17T09:47:49;6.43;;;1.50;;
29246;SDS011;16272;48.188;9.964;2023-05-17T09:50:16;6.78;;;1.42;;
29246;SDS011;16272;48.188;9.964;2023-05-17T09:52:43;5.68;;;1.70;;
29246;SDS011;16272;48.188;9.964;2023-05-17T09:55:09;5.83;;;1.60;;
29246;SDS011;16272;48.188;9.964;2023-05-17T09:57:39;4.70;;;1.17;;
29246;SDS011;16272;48.188;9.964;2023-05-17T10:00:05;5.47;;;1.20;;
29246;SDS011;16272;48.188;9.964;2023-05-17T10:02:36;5.40;;;1.02;;
29246;SDS011;16272;48.188;9.964;2023-05-17T10:05:07;7.45;;;1.30;;
29246;SDS011;16272;48.188;9.964;2023-05-17T10:07:36;5.15;;;1.45;;
29246;SDS011;16272;48.188;9.964;2023-05-17T10:10:02;6.57;;;1.17;;
29246;SDS011;16272;48.188;9.964;2023-05-17T10:12:29;5.35;;;1.30;;
29246;SDS011;16272;48.188;9.964;2023-05-17T10:14:57;6.13;;;1.17;;
29246;SDS011;16272;48.188;9.964;2023-05-17T10:17:25;6.72;;;1.50;;
29246;SDS011;16272;48.188;9.964;2023-05-17T10:19:54;5.90;;;1.48;;
29246;SDS011;16272;48.188;9.964;2023-05-17T10:22:20;5.70;;;1.33;;
29246;SDS011;16272;48.188;9.964;2023-05-17T10:24:46;5.28;;;1.30;;
29246;SDS011;16272;48.188;9.964;2023-05-17T10:27:13;5.82;;;1.40;;
29246;SDS011;16272;48.188;9.964;2023-05-17T10:29:40;6.78;;;1.40;;
29246;SDS011;16272;48.188;9.964;2023-05-17T10:32:06;5.75;;;1.48;;
29246;SDS011;16272;48.188;9.964;2023-05-17T10:34:32;5.83;;;1.30;;
29246;SDS011;16272;48.188;9.964;2023-05-17T10:36:59;6.38;;;1.55;;
29246;SDS011;16272;48.188;9.964;2023-05-17T10:39:26;7.82;;;1.40;;
29246;SDS011;16272;48.188;9.964;2023-05-17T10:41:51;5.63;;;1.60;;
29246;SDS011;16272;48.188;9.964;2023-05-17T10:44:20;6.22;;;1.58;;
29246;SDS011;16272;48.188;9.964;2023-05-17T10:46:56;5.53;;;1.60;;
29246;SDS011;16272;48.188;9.964;2023-05-17T10:49:28;7.90;;;1.77;;
29246;SDS011;16272;48.188;9.964;2023-05-17T10:51:59;6.83;;;1.70;;
29246;SDS011;16272;48.188;9.964;2023-05-17T10:54:38;7.50;;;1.70;;
29246;SDS011;16272;48.188;9.964;2023-05-17T10:57:06;5.80;;;1.30;;
29246;SDS011;16272;48.188;9.964;2023-05-17T10:59:32;6.63;;;1.50;;
29246;SDS011;16272;48.188;9.964;2023-05-17T11:02:06;6.60;;;1.52;;
29246;SDS011;16272;48.188;9.964;2023-05-17T11:04:36;5.87;;;1.67;;
29246;SDS011;16272;48.188;9.964;2023-05-17T11:09:41;6.63;;;2.03;;
29246;SDS011;16272;48.188;9.964;2023-05-17T11:12:08;7.65;;;1.63;;
29246;SDS011;16272;48.188;9.964;2023-05-17T11:15:09;6.38;;;1.65;;
29246;SDS011;16272;48.188;9.964;2023-05-17T11:22:39;6.63;;;1.70;;
29246;SDS011;16272;48.188;9.964;2023-05-17T11:25:10;7.10;;;1.60;;
29246;SDS011;16272;48.188;9.964;2023-05-17T11:27:38;7.80;;;2.17;;
29246;SDS011;16272;48.188;9.964;2023-05-17T11:30:07;7.90;;;2.10;;
29246;SDS011;16272;48.188;9.964;2023-05-17T11:33:11;7.13;;;2.15;;
29246;SDS011;16272;48.188;9.964;2023-05-17T11:35:37;6.80;;;1.90;;
29246;SDS011;16272;48.188;9.964;2023-05-17T11:38:22;8.02;;;2.15;;
29246;SDS011;16272;48.188;9.964;2023-05-17T11:40:54;6.90;;;1.73;;
29246;SDS011;16272;48.188;9.964;2023-05-17T11:43:24;6.63;;;1.90;;
29246;SDS011;16272;48.188;9.964;2023-05-17T11:45:55;6.00;;;1.90;;
29246;SDS011;16272;48.188;9.964;2023-05-17T11:48:22;8.90;;;1.98;;
29246;SDS011;16272;48.188;9.964;2023-05-17T11:50:50;6.35;;;1.73;;
29246;SDS011;16272;48.188;9.964;2023-05-17T11:53:18;5.88;;;1.60;;
29246;SDS011;16272;48.188;9.964;2023-05-17T11:55:44;8.20;;;2.00;;
29246;SDS011;16272;48.188;9.964;2023-05-17T11:58:12;6.07;;;1.65;;
29246;SDS011;16272;48.188;9.964;2023-05-17T12:00:42;6.55;;;1.88;;
29246;SDS011;16272;48.188;9.964;2023-05-17T12:03:15;7.55;;;2.10;;
29246;SDS011;16272;48.188;9.964;2023-05-17T12:05:45;5.72;;;1.52;;
29246;SDS011;16272;48.188;9.964;2023-05-17T12:08:20;6.50;;;2.40;;
29246;SDS011;16272;48.188;9.964;2023-05-17T12:10:46;6.88;;;1.80;;
29246;SDS011;16272;48.188;9.964;2023-05-17T12:13:14;7.00;;;1.67;;
29246;SDS011;16272;48.188;9.964;2023-05-17T12:15:39;6.43;;;1.90;;
29246;SDS011;16272;48.188;9.964;2023-05-17T12:18:08;6.15;;;1.83;;
29246;SDS011;16272;48.188;9.964;2023-05-17T12:20:33;6.07;;;1.60;;
29246;SDS011;16272;48.188;9.964;2023-05-17T12:23:01;6.95;;;2.00;;
29246;SDS011;16272;48.188;9.964;2023-05-17T12:25:26;6.80;;;1.60;;
29246;SDS011;16272;48.188;9.964;2023-05-17T12:28:14;6.53;;;1.80;;
29246;SDS011;16272;48.188;9.964;2023-05-17T12:30:42;7.00;;;2.03;;
29246;SDS011;16272;48.188;9.964;2023-05-17T12:33:08;7.33;;;2.17;;
29246;SDS011;16272;48.188;9.964;2023-05-17T12:35:33;6.50;;;1.60;;
29246;SDS011;16272;48.188;9.964;2023-05-17T12:37:59;6.13;;;1.60;;
29246;SDS011;16272;48.188;9.964;2023-05-17T12:40:25;6.18;;;1.60;;
29246;SDS011;16272;48.188;9.964;2023-05-17T12:42:59;6.65;;;2.13;;
29246;SDS011;16272;48.188;9.964;2023-05-17T12:45:25;6.95;;;2.00;;
29246;SDS011;16272;48.188;9.964;2023-05-17T12:47:51;8.03;;;2.00;;
29246;SDS011;16272;48.188;9.964;2023-05-17T12:50:38;6.50;;;2.03;;
29246;SDS011;16272;48.188;9.964;2023-05-17T12:53:08;7.07;;;2.08;;
29246;SDS011;16272;48.188;9.964;2023-05-17T12:55:36;8.00;;;2.00;;
29246;SDS011;16272;48.188;9.964;2023-05-17T12:58:02;7.95;;;2.05;;
29246;SDS011;16272;48.188;9.964;2023-05-17T13:00:28;5.87;;;1.73;;
29246;SDS011;16272;48.188;9.964;2023-05-17T13:02:54;7.63;;;2.10;;
29246;SDS011;16272;48.188;9.964;2023-05-17T13:05:19;7.07;;;2.03;;
29246;SDS011;16272;48.188;9.964;2023-05-17T13:07:48;6.85;;;2.10;;
29246;SDS011;16272;48.188;9.964;2023-05-17T13:12:53;7.60;;;1.70;;
29246;SDS011;16272;48.188;9.964;2023-05-17T13:15:20;6.38;;;1.63;;
29246;SDS011;16272;48.188;9.964;2023-05-17T13:17:54;7.07;;;2.22;;
29246;SDS011;16272;48.188;9.964;2023-05-17T13:20:19;6.37;;;1.70;;
29246;SDS011;16272;48.188;9.964;2023-05-17T13:22:46;6.45;;;1.88;;
29246;SDS011;16272;48.188;9.964;2023-05-17T13:25:11;6.70;;;1.90;;
29246;SDS011;16272;48.188;9.964;2023-05-17T13:27:37;5.90;;;1.80;;
29246;SDS011;16272;48.188;9.964;2023-05-17T13:30:02;7.13;;;1.90;;
29246;SDS011;16272;48.188;9.964;2023-05-17T13:32:28;7.80;;;2.35;;
29246;SDS011;16272;48.188;9.964;2023-05-17T13:34:55;6.77;;;2.00;;
29246;SDS011;16272;48.188;9.964;2023-05-17T13:37:21;6.90;;;1.90;;
29246;SDS011;16272;48.188;9.964;2023-05-17T13:39:46;7.43;;;1.90;;
29246;SDS011;16272;48.188;9.964;2023-05-17T13:42:12;6.50;;;2.00;;
29246;SDS011;16272;48.188;9.964;2023-05-17T13:44:38;7.65;;;2.65;;
29246;SDS011;16272;48.188;9.964;2023-05-17T13:47:04;7.40;;;2.20;;
29246;SDS011;16272;48.188;9.964;2023-05-17T13:49:29;7.90;;;2.00;;
29246;SDS011;16272;48.188;9.964;2023-05-17T13:51:55;6.87;;;2.17;;
29246;SDS011;16272;48.188;9.964;2023-05-17T13:54:20;6.63;;;2.22;;
29246;SDS011;16272;48.188;9.964;2023-05-17T13:56:46;6.93;;;2.27;;
29246;SDS011;16272;48.188;9.964;2023-05-17T13:59:12;6.75;;;2.20;;
29246;SDS011;16272;48.188;9.964;2023-05-17T14:01:39;6.47;;;2.03;;
29246;SDS011;16272;48.188;9.964;2023-05-17T14:04:05;7.10;;;2.60;;
29246;SDS011;16272;48.188;9.964;2023-05-17T14:06:30;7.38;;;2.22;;
29246;SDS011;16272;48.188;9.964;2023-05-17T14:08:55;7.30;;;2.23;;
29246;SDS011;16272;48.188;9.964;2023-05-17T14:11:23;8.18;;;2.58;;
29246;SDS011;16272;48.188;9.964;2023-05-17T14:13:49;7.57;;;2.43;;
29246;SDS011;16272;48.188;9.964;2023-05-17T14:16:15;6.90;;;2.40;;
29246;SDS011;16272;48.188;9.964;2023-05-17T14:18:40;7.40;;;2.17;;
29246;SDS011;16272;48.188;9.964;2023-05-17T14:21:05;6.77;;;2.10;;
29246;SDS011;16272;48.188;9.964;2023-05-17T14:23:32;6.75;;;2.40;;
29246;SDS011;16272;48.188;9.964;2023-05-17T14:25:59;8.32;;;2.10;;
29246;SDS011;16272;48.188;9.964;2023-05-17T14:28:26;7.17;;;2.70;;
29246;SDS011;16272;48.188;9.964;2023-05-17T14:30:53;7.50;;;2.30;;
29246;SDS011;16272;48.188;9.964;2023-05-17T14:33:18;6.80;;;2.20;;
29246;SDS011;16272;48.188;9.964;2023-05-17T14:35:43;9.10;;;2.35;;
29246;SDS011;16272;48.188;9.964;2023-05-17T14:38:09;9.40;;;2.93;;
29246;SDS011;16272;48.188;9.964;2023-05-17T14:40:34;10.23;;;2.60;;
29246;SDS011;16272;48.188;9.964;2023-05-17T14:43:00;10.63;;;2.83;;
29246;SDS011;16272;48.188;9.964;2023-05-17T14:45:25;7.47;;;2.70;;
29246;SDS011;16272;48.188;9.964;2023-05-17T14:47:50;8.00;;;2.30;;
29246;SDS011;16272;48.188;9.964;2023-05-17T14:50:16;7.90;;;2.88;;
29246;SDS011;16272;48.188;9.964;2023-05-17T14:52:41;8.47;;;3.10;;
29246;SDS011;16272;48.188;9.964;2023-05-17T14:55:08;8.95;;;2.83;;
29246;SDS011;16272;48.188;9.964;2023-05-17T14:57:33;8.93;;;2.60;;
29246;SDS011;16272;48.188;9.964;2023-05-17T14:59:59;7.90;;;2.40;;
29246;SDS011;16272;48.188;9.964;2023-05-17T15:02:25;7.67;;;2.90;;
29246;SDS011;16272;48.188;9.964;2023-05-17T15:04:50;8.88;;;2.70;;
29246;SDS011;16272;48.188;9.964;2023-05-17T15:07:16;8.00;;;2.87;;